createdAt,value
2018-09-26T00:00:22.998Z,8.18
2018-09-26T00:05:26.400Z,8.17
2018-09-26T00:10:29.814Z,8.19
2018-09-26T00:15:33.186Z,8.18
2018-09-26T00:20:36.528Z,8.05
2018-09-26T00:25:39.853Z,7.98
2018-09-26T00:30:43.219Z,7.84
2018-09-26T00:35:46.701Z,7.74
2018-09-26T00:40:50.020Z,7.73
2018-09-26T00:45:53.476Z,7.70
2018-09-26T00:50:56.858Z,7.63
2018-09-26T00:56:00.282Z,7.61
2018-09-26T01:01:03.730Z,7.48
2018-09-26T01:06:07.335Z,7.50
2018-09-26T01:11:10.680Z,7.52
2018-09-26T01:16:14.206Z,7.54
2018-09-26T01:21:17.560Z,7.60
2018-09-26T01:26:20.902Z,7.57
2018-09-26T01:31:24.230Z,7.48
2018-09-26T01:36:27.546Z,7.43
2018-09-26T01:41:30.943Z,7.40
2018-09-26T01:46:34.294Z,7.41
2018-09-26T01:51:37.623Z,7.43
2018-09-26T01:56:41.218Z,7.45
2018-09-26T02:01:44.543Z,7.44
2018-09-26T02:06:47.855Z,7.44
2018-09-26T02:11:51.354Z,7.42
2018-09-26T02:16:54.661Z,7.40
2018-09-26T02:21:58.002Z,7.34
2018-09-26T02:27:01.342Z,7.33
2018-09-26T02:32:04.650Z,7.35
2018-09-26T02:37:09.136Z,7.31
2018-09-26T02:42:12.579Z,7.30
2018-09-26T02:47:15.907Z,7.30
2018-09-26T02:52:19.250Z,7.32
2018-09-26T02:57:22.689Z,7.28
2018-09-26T03:02:26.047Z,7.27
2018-09-26T03:07:29.424Z,7.27
2018-09-26T03:12:32.750Z,7.15
2018-09-26T03:17:36.070Z,6.99
2018-09-26T03:22:39.426Z,6.86
2018-09-26T03:27:42.759Z,6.81
2018-09-26T03:32:46.123Z,6.87
2018-09-26T03:37:49.554Z,6.94
2018-09-26T03:42:52.887Z,6.93
2018-09-26T03:47:56.210Z,6.92
2018-09-26T03:52:59.532Z,6.91
2018-09-26T03:58:02.902Z,6.94
2018-09-26T04:03:06.268Z,6.94
2018-09-26T04:08:09.555Z,6.95
2018-09-26T04:13:13.206Z,6.95
2018-09-26T04:18:16.706Z,6.91
2018-09-26T04:23:20.098Z,6.86
2018-09-26T04:28:23.630Z,6.77
2018-09-26T04:33:27.165Z,6.74
2018-09-26T04:38:30.581Z,6.80
2018-09-26T04:43:34.163Z,6.86
2018-09-26T04:48:37.585Z,6.87
2018-09-26T04:53:40.920Z,6.82
2018-09-26T04:58:44.322Z,6.77
2018-09-26T05:03:47.851Z,6.79
2018-09-26T05:08:51.351Z,6.76
2018-09-26T05:13:54.767Z,6.76
2018-09-26T05:18:58.517Z,6.77
2018-09-26T05:24:01.858Z,6.82
2018-09-26T05:29:05.169Z,6.82
2018-09-26T05:34:09.518Z,6.80
2018-09-26T05:39:13.102Z,6.79
2018-09-26T05:44:16.463Z,6.83
2018-09-26T05:49:19.818Z,6.87
2018-09-26T05:54:23.126Z,7.01
2018-09-26T05:59:27.299Z,7.13
2018-09-26T06:04:30.606Z,7.28
2018-09-26T06:09:34.029Z,7.32
2018-09-26T06:14:37.362Z,7.41
2018-09-26T06:19:41.224Z,7.45
2018-09-26T06:24:44.837Z,7.52
2018-09-26T06:29:48.102Z,7.69
2018-09-26T06:34:51.466Z,7.85
2018-09-26T06:39:54.816Z,7.97
2018-09-26T06:44:58.128Z,8.11
2018-09-26T06:50:01.586Z,8.19
2018-09-26T06:55:05.283Z,8.39
2018-09-26T07:00:08.866Z,8.60
2018-09-26T07:05:12.142Z,8.79
2018-09-26T07:10:15.485Z,8.83
2018-09-26T07:15:18.773Z,8.91
2018-09-26T07:20:22.504Z,8.97
2018-09-26T07:25:25.798Z,9.05
2018-09-26T07:30:29.135Z,9.16
2018-09-26T07:35:32.421Z,9.18
2018-09-26T07:40:35.726Z,9.21
2018-09-26T07:45:39.094Z,9.29
2018-09-26T07:50:42.375Z,9.42
2018-09-26T07:55:45.720Z,9.48
2018-09-26T08:00:49.064Z,9.63
2018-09-26T08:05:52.403Z,9.76
2018-09-26T08:10:55.697Z,9.90
2018-09-26T08:15:59.182Z,10.05
2018-09-26T08:21:02.870Z,10.12
2018-09-26T08:26:06.354Z,10.30
2018-09-26T08:31:09.664Z,10.47
2018-09-26T08:36:12.956Z,10.67
2018-09-26T08:41:16.318Z,10.82
2018-09-26T08:46:19.679Z,10.92
2018-09-26T08:51:23.007Z,11.09
2018-09-26T08:56:26.311Z,11.31
2018-09-26T09:01:34.891Z,11.48
2018-09-26T09:06:38.200Z,11.56
2018-09-26T09:11:41.547Z,11.61
2018-09-26T09:16:44.821Z,11.73
2018-09-26T09:21:48.270Z,11.85
2018-09-26T09:32:00.377Z,12.03
2018-09-26T09:37:03.793Z,12.17
2018-09-26T09:42:07.364Z,12.32
2018-09-26T09:47:10.664Z,12.43
2018-09-26T09:52:13.996Z,12.43
2018-09-26T09:57:17.314Z,12.44
2018-09-26T10:02:20.654Z,12.66
2018-09-26T10:07:24.605Z,12.82
2018-09-26T10:12:27.972Z,13.12
2018-09-26T10:17:32.315Z,13.45
2018-09-26T10:22:35.702Z,13.71
2018-09-26T10:27:39.071Z,14.20
2018-09-26T10:32:42.939Z,14.67
2018-09-26T10:37:46.391Z,15.05
2018-09-26T10:42:50.178Z,15.11
2018-09-26T10:47:53.657Z,15.11
2018-09-26T10:52:56.983Z,15.08
2018-09-26T10:58:00.340Z,15.40
2018-09-26T11:03:03.655Z,15.49
2018-09-26T11:08:07.086Z,15.77
2018-09-26T11:13:10.442Z,16.59
2018-09-26T11:18:13.755Z,20.18
2018-09-26T11:23:17.059Z,26.99
2018-09-26T11:28:20.436Z,29.24
2018-09-26T11:33:23.838Z,29.31
2018-09-26T11:38:27.255Z,27.32
2018-09-26T11:43:30.547Z,28.09
2018-09-26T11:48:33.883Z,28.06
2018-09-26T11:53:37.243Z,26.95
2018-09-26T11:58:40.799Z,28.18
2018-09-26T12:03:44.179Z,29.60
2018-09-26T12:08:47.654Z,27.83
2018-09-26T12:13:51.126Z,27.45
2018-09-26T12:18:54.383Z,24.69
2018-09-26T12:23:57.715Z,26.28
2018-09-26T12:29:01.051Z,25.94
2018-09-26T12:34:04.364Z,27.17
2018-09-26T12:39:08.991Z,28.23
2018-09-26T12:44:12.286Z,28.93
2018-09-26T12:49:15.588Z,27.73
2018-09-26T12:54:18.888Z,23.70
2018-09-26T12:59:22.201Z,22.22
2018-09-26T13:04:25.676Z,21.07
2018-09-26T13:09:28.903Z,20.24
2018-09-26T13:14:32.204Z,22.51
2018-09-26T13:19:35.520Z,23.61
2018-09-26T13:24:38.811Z,24.12
2018-09-26T13:29:42.295Z,24.01
2018-09-26T13:34:45.608Z,23.73
2018-09-26T13:39:48.979Z,23.05
2018-09-26T13:44:52.274Z,22.85
2018-09-26T13:49:55.655Z,21.38
2018-09-26T13:54:58.998Z,21.01
2018-09-26T14:00:02.306Z,20.06
2018-09-26T14:05:06.692Z,19.34
2018-09-26T14:10:10.059Z,19.04
2018-09-26T14:15:13.442Z,18.87
2018-09-26T14:20:33.504Z,18.65
2018-09-26T14:25:37.123Z,18.42
2018-09-26T14:30:40.956Z,18.30
2018-09-26T14:35:44.402Z,18.05
2018-09-26T14:40:47.992Z,17.90
2018-09-26T14:45:51.638Z,17.87
2018-09-26T14:50:55.187Z,17.83
2018-09-26T14:55:59.069Z,17.84
2018-09-26T15:01:02.634Z,17.89
2018-09-26T15:06:06.214Z,17.88
2018-09-26T15:11:09.768Z,17.74
2018-09-26T15:16:13.314Z,17.61
2018-09-26T15:21:16.912Z,17.58
2018-09-26T15:26:20.474Z,17.49
2018-09-26T15:31:24.043Z,17.39
2018-09-26T15:36:27.641Z,17.27
2018-09-26T15:41:31.260Z,17.13
2018-09-26T15:46:34.861Z,16.94
2018-09-26T15:51:38.414Z,16.77
2018-09-26T15:56:42.019Z,16.63
2018-09-26T16:01:45.600Z,16.54
2018-09-26T16:06:48.913Z,16.49
2018-09-26T16:11:52.217Z,16.41
2018-09-26T16:16:55.518Z,16.32
2018-09-26T16:21:59.083Z,16.21
2018-09-26T16:27:02.379Z,16.15
2018-09-26T16:32:05.672Z,16.06
2018-09-26T16:37:08.973Z,16.13
2018-09-26T16:42:12.310Z,16.02
2018-09-26T16:47:15.630Z,16.06
2018-09-26T16:52:19.003Z,16.03
2018-09-26T16:57:22.293Z,15.75
2018-09-26T17:02:25.626Z,15.59
2018-09-26T17:07:28.922Z,15.50
2018-09-26T17:12:32.226Z,15.41
2018-09-26T17:17:35.543Z,15.31
2018-09-26T17:22:39.097Z,15.17
2018-09-26T17:27:42.412Z,15.03
2018-09-26T17:32:45.718Z,14.91
2018-09-26T17:37:49.055Z,14.76
2018-09-26T17:42:52.546Z,14.67
2018-09-26T17:47:55.856Z,14.65
2018-09-26T17:52:59.160Z,14.65
2018-09-26T17:58:02.458Z,14.64
2018-09-26T18:03:05.763Z,14.61
2018-09-26T18:08:09.078Z,14.61
2018-09-26T18:13:12.481Z,14.62
2018-09-26T18:18:15.846Z,14.59
2018-09-26T18:23:19.363Z,14.57
2018-09-26T18:28:22.648Z,14.56
2018-09-26T18:33:26.012Z,14.53
2018-09-26T18:38:29.315Z,14.50
2018-09-26T18:43:32.622Z,14.46
2018-09-26T18:48:36.003Z,14.41
2018-09-26T18:53:39.440Z,14.35
2018-09-26T18:58:42.840Z,14.32
2018-09-26T19:03:46.208Z,14.29
2018-09-26T19:08:49.639Z,14.24
2018-09-26T19:13:52.975Z,14.21
2018-09-26T19:18:56.279Z,14.20
2018-09-26T19:23:59.592Z,14.18
2018-09-26T19:29:02.896Z,14.18
2018-09-26T19:34:06.223Z,14.16
2018-09-26T19:39:10.618Z,14.14
2018-09-26T19:44:15.470Z,14.11
2018-09-26T19:49:19.486Z,14.06
2018-09-26T19:54:22.860Z,14.02
2018-09-26T19:59:26.213Z,13.99
2018-09-26T20:04:29.633Z,13.99
2018-09-26T20:09:32.970Z,13.93
2018-09-26T20:14:36.262Z,13.85
2018-09-26T20:19:39.591Z,13.83
2018-09-26T20:24:42.895Z,13.79
2018-09-26T20:29:46.463Z,13.74
2018-09-26T20:34:49.552Z,13.70
2018-09-26T20:39:52.998Z,13.69
2018-09-26T20:44:56.396Z,13.66
2018-09-26T20:49:59.755Z,13.62
2018-09-26T20:55:03.307Z,13.64
2018-09-26T21:00:06.693Z,13.69
2018-09-26T21:05:10.024Z,13.74
2018-09-26T21:10:13.435Z,13.81
2018-09-26T21:15:16.754Z,13.84
2018-09-26T21:20:21.635Z,13.89
2018-09-26T21:25:24.998Z,13.94
2018-09-26T21:30:28.326Z,13.94
2018-09-26T21:35:31.800Z,13.93
2018-09-26T21:40:35.208Z,13.94
2018-09-26T21:45:38.679Z,13.93
2018-09-26T21:50:42.553Z,13.92
2018-09-26T21:55:45.862Z,13.91
2018-09-26T22:00:54.630Z,13.89
2018-09-26T22:05:58.011Z,13.86
2018-09-26T22:11:01.355Z,13.82
2018-09-26T22:16:04.682Z,13.74
2018-09-26T22:21:08.039Z,13.70
2018-09-26T22:26:11.440Z,13.65
2018-09-26T22:31:14.833Z,13.56
2018-09-26T22:36:18.216Z,13.48
2018-09-26T22:41:21.538Z,13.39
2018-09-26T22:46:24.977Z,13.33
2018-09-26T22:51:28.311Z,13.32
2018-09-26T22:56:31.646Z,13.30
2018-09-26T23:01:35.002Z,13.29
2018-09-26T23:06:38.315Z,13.24
2018-09-26T23:11:41.802Z,13.23
2018-09-26T23:16:45.187Z,13.20
2018-09-26T23:21:48.510Z,13.20
2018-09-26T23:26:51.825Z,13.25
2018-09-26T23:31:55.188Z,13.26
2018-09-26T23:36:58.520Z,13.31
2018-09-26T23:42:01.843Z,13.33
2018-09-26T23:47:05.257Z,13.34
2018-09-26T23:52:08.583Z,13.31
2018-09-26T23:57:11.912Z,13.31
